Time,TemperatureF,DewpointF,PressureIn,WindDirection,WindDirectionDegrees,WindSpeedMPH,WindSpeedGustMPH,Humidity,HourlyPrecipIn,Conditions,Clouds,dailyrainin,SoftwareType,DateUTC
2013-03-15 00:02:00,36.0,27.0,-100.00,ENE,75,0.0,0.0,69,-99.99,,,-99.99,,2013-03-15 06:02:00,
2013-03-15 00:12:00,35.0,27.0,-100.00,ENE,75,0.0,0.0,70,-99.99,,,-99.99,,2013-03-15 06:12:00,
2013-03-15 00:22:00,35.0,27.0,-100.00,ENE,75,0.0,0.0,71,-99.99,,,-99.99,,2013-03-15 06:22:00,
2013-03-15 00:32:00,35.0,27.0,-100.00,ENE,75,0.0,1.0,72,-99.99,,,-99.99,,2013-03-15 06:32:00,
2013-03-15 00:42:00,34.0,27.0,-100.00,ENE,75,0.0,1.0,72,-99.99,,,-99.99,,2013-03-15 06:42:00,
2013-03-15 00:52:00,34.0,26.0,-100.00,ENE,75,0.0,0.0,73,-99.99,,,-99.99,,2013-03-15 06:52:00,
2013-03-15 01:02:00,34.0,26.0,-100.00,ENE,75,0.0,0.0,74,-99.99,,,-99.99,,2013-03-15 07:02:00,
2013-03-15 01:12:00,34.0,27.0,-100.00,ENE,75,0.0,1.0,75,-99.99,,,-99.99,,2013-03-15 07:12:00,
2013-03-15 01:22:00,33.0,26.0,-100.00,ENE,75,0.0,0.0,75,-99.99,,,-99.99,,2013-03-15 07:22:00,
2013-03-15 01:32:00,33.0,27.0,-100.00,ENE,75,0.0,1.0,76,-99.99,,,-99.99,,2013-03-15 07:32:00,
2013-03-15 01:42:00,33.0,26.0,-100.00,ENE,75,0.0,0.0,77,-99.99,,,-99.99,,2013-03-15 07:42:00,
2013-03-15 01:52:00,33.0,27.0,-100.00,NE,40,0.0,0.0,78,-99.99,,,-99.99,,2013-03-15 07:52:00,
2013-03-15 02:02:00,32.0,27.0,-100.00,NE,40,0.0,0.0,79,-99.99,,,-99.99,,2013-03-15 08:02:00,
2013-03-15 02:12:00,32.0,27.0,-100.00,NE,40,0.0,0.0,79,-99.99,,,-99.99,,2013-03-15 08:12:00,
2013-03-15 02:22:00,32.0,27.0,-100.00,NE,40,0.0,1.0,80,-99.99,,,-99.99,,2013-03-15 08:22:00,
2013-03-15 02:32:00,31.0,26.0,-100.00,NE,35,0.0,0.0,81,-99.99,,,-99.99,,2013-03-15 08:32:00,
2013-03-15 02:42:00,31.0,26.0,-100.00,ENE,60,0.0,1.0,82,-99.99,,,-99.99,,2013-03-15 08:42:00,
2013-03-15 02:52:00,31.0,27.0,-100.00,NE,55,0.0,0.0,83,-99.99,,,-99.99,,2013-03-15 08:52:00,
2013-03-15 03:02:00,31.0,27.0,-100.00,ENE,65,0.0,1.0,83,-99.99,,,-99.99,,2013-03-15 09:02:00,
2013-03-15 03:11:00,31.0,27.0,-100.00,ENE,65,0.0,0.0,84,-99.99,,,-99.99,,2013-03-15 09:11:00,
2013-03-15 03:21:00,31.0,27.0,-100.00,ENE,70,0.0,1.0,84,-99.99,,,-99.99,,2013-03-15 09:21:00,
2013-03-15 03:33:00,31.0,27.0,-100.00,ENE,65,0.0,1.0,85,-99.99,,,-99.99,,2013-03-15 09:33:00,
2013-03-15 03:42:00,31.0,27.0,-100.00,NE,45,1.0,2.0,85,-99.99,,,-99.99,,2013-03-15 09:42:00,
2013-03-15 03:52:00,31.0,27.0,-100.00,NNW,345,0.0,2.0,86,-99.99,,,-99.99,,2013-03-15 09:52:00,
2013-03-15 04:02:00,31.0,27.0,-100.00,North,350,0.0,1.0,86,-99.99,,,-99.99,,2013-03-15 10:02:00,
2013-03-15 04:12:00,31.0,27.0,-100.00,NW,305,0.0,1.0,86,-99.99,,,-99.99,,2013-03-15 10:12:00,
2013-03-15 04:23:00,30.0,27.0,-100.00,NW,320,0.0,0.0,87,-99.99,,,-99.99,,2013-03-15 10:23:00,
2013-03-15 04:32:00,30.0,27.0,-100.00,North,350,0.0,1.0,87,-99.99,,,-99.99,,2013-03-15 10:32:00,
2013-03-15 04:42:00,30.0,27.0,-100.00,North,350,0.0,0.0,87,-99.99,,,-99.99,,2013-03-15 10:42:00,
2013-03-15 04:52:00,29.0,26.0,-100.00,North,350,0.0,0.0,88,-99.99,,,-99.99,,2013-03-15 10:52:00,
2013-03-15 05:02:00,29.0,26.0,-100.00,NW,325,1.0,2.0,88,-99.99,,,-99.99,,2013-03-15 11:02:00,
2013-03-15 05:12:00,29.0,26.0,-100.00,NNW,335,1.0,2.0,88,-99.99,,,-99.99,,2013-03-15 11:12:00,
2013-03-15 05:22:00,29.0,26.0,-100.00,NNW,330,0.0,2.0,89,-99.99,,,-99.99,,2013-03-15 11:22:00,
2013-03-15 05:32:00,29.0,26.0,-100.00,NNE,30,1.0,2.0,90,-99.99,,,-99.99,,2013-03-15 11:32:00,
2013-03-15 05:42:00,29.0,26.0,-100.00,North,355,0.0,2.0,90,-99.99,,,-99.99,,2013-03-15 11:42:00,
2013-03-15 05:52:00,28.0,26.0,-100.00,North,0,0.0,1.0,91,-99.99,,,-99.99,,2013-03-15 11:52:00,
2013-03-15 06:02:00,28.0,26.0,-100.00,North,0,0.0,0.0,91,-99.99,,,-99.99,,2013-03-15 12:02:00,
2013-03-15 06:12:00,28.0,26.0,-100.00,North,0,0.0,0.0,92,-99.99,,,-99.99,,2013-03-15 12:12:00,
2013-03-15 06:32:00,28.0,26.0,-100.00,NNE,25,1.0,2.0,92,-99.99,,,-99.99,,2013-03-15 12:32:00,
2013-03-15 06:42:00,28.0,26.0,-100.00,NNE,20,0.0,1.0,92,-99.99,,,-99.99,,2013-03-15 12:42:00,
2013-03-15 06:52:00,28.0,26.0,-100.00,NNE,25,0.0,0.0,93,-99.99,,,-99.99,,2013-03-15 12:52:00,
2013-03-15 07:02:00,27.0,26.0,-100.00,NNE,25,0.0,0.0,93,-99.99,,,-99.99,,2013-03-15 13:02:00,
2013-03-15 07:12:00,27.0,26.0,-100.00,NNE,25,1.0,1.0,94,-99.99,,,-99.99,,2013-03-15 13:12:00,
2013-03-15 07:22:00,27.0,26.0,-100.00,NNE,25,0.0,1.0,94,-99.99,,,-99.99,,2013-03-15 13:22:00,
2013-03-15 07:32:00,27.0,26.0,-100.00,NNE,25,1.0,1.0,94,-99.99,,,-99.99,,2013-03-15 13:32:00,
2013-03-15 07:42:00,27.0,26.0,-100.00,NNE,25,0.0,1.0,94,-99.99,,,-99.99,,2013-03-15 13:42:00,
2013-03-15 07:52:00,27.0,26.0,-100.00,NNW,345,0.0,2.0,95,-99.99,,,-99.99,,2013-03-15 13:52:00,
2013-03-15 08:02:00,27.0,26.0,-100.00,North,5,0.0,0.0,95,-99.99,,,-99.99,,2013-03-15 14:02:00,
2013-03-15 08:11:00,28.0,26.0,-100.00,North,5,0.0,0.0,95,-99.99,,,-99.99,,2013-03-15 14:11:00,
2013-03-15 08:22:00,28.0,27.0,-100.00,North,5,0.0,0.0,95,-99.99,,,-99.99,,2013-03-15 14:22:00,
2013-03-15 08:32:00,29.0,28.0,-100.00,NNE,30,0.0,1.0,95,-99.99,,,-99.99,,2013-03-15 14:32:00,
2013-03-15 08:42:00,29.0,28.0,-100.00,NE,55,0.0,2.0,95,-99.99,,,-99.99,,2013-03-15 14:42:00,
2013-03-15 08:52:00,31.0,29.0,-100.00,East,80,2.0,3.0,95,-99.99,,,-99.99,,2013-03-15 14:52:00,
2013-03-15 09:02:00,32.0,30.0,-100.00,East,90,1.0,3.0,93,-99.99,,,-99.99,,2013-03-15 15:02:00,
2013-03-15 09:12:00,32.0,30.0,-100.00,ENE,75,1.0,2.0,90,-99.99,,,-99.99,,2013-03-15 15:12:00,
2013-03-15 09:32:00,37.0,31.0,-100.00,East,95,0.0,3.0,76,-99.99,,,-99.99,,2013-03-15 15:32:00,
2013-03-15 09:42:00,40.0,30.0,-100.00,East,95,1.0,2.0,69,-99.99,,,-99.99,,2013-03-15 15:42:00,
2013-03-15 09:52:00,42.0,30.0,-100.00,East,85,1.0,3.0,62,-99.99,,,-99.99,,2013-03-15 15:52:00,
2013-03-15 10:02:00,42.0,28.0,-100.00,East,90,2.0,3.0,58,-99.99,,,-99.99,,2013-03-15 16:02:00,
2013-03-15 10:12:00,44.0,28.0,-100.00,East,90,2.0,4.0,54,-99.99,,,-99.99,,2013-03-15 16:12:00,
2013-03-15 10:22:00,45.0,28.0,-100.00,East,80,2.0,4.0,49,-99.99,,,-99.99,,2013-03-15 16:22:00,
2013-03-15 10:32:00,47.0,27.0,-100.00,ENE,70,0.0,3.0,45,-99.99,,,-99.99,,2013-03-15 16:32:00,
2013-03-15 10:42:00,48.0,27.0,-100.00,SE,130,2.0,3.0,43,-99.99,,,-99.99,,2013-03-15 16:42:00,
2013-03-15 10:52:00,49.0,27.0,-100.00,South,170,1.0,2.0,41,-99.99,,,-99.99,,2013-03-15 16:52:00,
2013-03-15 11:02:00,50.0,27.0,-100.00,NE,55,1.0,2.0,40,-99.99,,,-99.99,,2013-03-15 17:02:00,
2013-03-15 11:12:00,51.0,27.0,-100.00,NE,50,1.0,3.0,39,-99.99,,,-99.99,,2013-03-15 17:12:00,
2013-03-15 11:22:00,53.0,27.0,-100.00,East,95,2.0,5.0,37,-99.99,,,-99.99,,2013-03-15 17:22:00,
2013-03-15 11:32:00,53.0,27.0,-100.00,ENE,70,3.0,5.0,35,-99.99,,,-99.99,,2013-03-15 17:32:00,
2013-03-15 11:42:00,54.0,27.0,-100.00,SE,130,3.0,4.0,34,-99.99,,,-99.99,,2013-03-15 17:42:00,
2013-03-15 11:52:00,54.0,27.0,-100.00,ENE,65,2.0,4.0,34,-99.99,,,-99.99,,2013-03-15 17:52:00,
2013-03-15 12:02:00,56.0,28.0,-100.00,East,95,2.0,4.0,33,-99.99,,,-99.99,,2013-03-15 18:02:00,
2013-03-15 12:12:00,58.0,27.0,-100.00,SSW,195,3.0,6.0,30,-99.99,,,-99.99,,2013-03-15 18:12:00,
2013-03-15 12:22:00,60.0,27.0,-100.00,SSW,210,7.0,14.0,28,-99.99,,,-99.99,,2013-03-15 18:22:00,
2013-03-15 12:32:00,61.0,26.0,-100.00,SSW,200,6.0,12.0,26,-99.99,,,-99.99,,2013-03-15 18:32:00,
2013-03-15 12:42:00,62.0,26.0,-100.00,SSW,210,6.0,11.0,26,-99.99,,,-99.99,,2013-03-15 18:42:00,
2013-03-15 12:52:00,63.0,27.0,-100.00,South,190,5.0,10.0,24,-99.99,,,-99.99,,2013-03-15 18:52:00,
2013-03-15 13:02:00,65.0,26.0,-100.00,SSW,210,9.0,17.0,22,-99.99,,,-99.99,,2013-03-15 19:02:00,
2013-03-15 13:12:00,66.0,26.0,-100.00,SW,230,10.0,21.0,21,-99.99,,,-99.99,,2013-03-15 19:12:00,
2013-03-15 13:22:00,66.0,25.0,-100.00,SSW,210,12.0,19.0,20,-99.99,,,-99.99,,2013-03-15 19:22:00,
2013-03-15 13:32:00,66.0,24.0,-100.00,SW,225,11.0,19.0,20,-99.99,,,-99.99,,2013-03-15 19:32:00,
2013-03-15 13:42:00,66.0,24.0,-100.00,SW,220,9.0,18.0,20,-99.99,,,-99.99,,2013-03-15 19:42:00,
2013-03-15 13:52:00,66.0,24.0,-100.00,SSW,195,7.0,17.0,20,-99.99,,,-99.99,,2013-03-15 19:52:00,
2013-03-15 14:02:00,67.0,24.0,-100.00,SW,230,10.0,20.0,19,-99.99,,,-99.99,,2013-03-15 20:02:00,
2013-03-15 14:12:00,67.0,24.0,-100.00,SSW,210,9.0,20.0,19,-99.99,,,-99.99,,2013-03-15 20:12:00,
2013-03-15 14:22:00,68.0,25.0,-100.00,SW,235,7.0,15.0,19,-99.99,,,-99.99,,2013-03-15 20:22:00,
2013-03-15 14:31:00,68.0,24.0,-100.00,SW,215,7.0,19.0,18,-99.99,,,-99.99,,2013-03-15 20:31:00,
2013-03-15 14:42:00,68.0,24.0,-100.00,SSW,200,7.0,14.0,18,-99.99,,,-99.99,,2013-03-15 20:42:00,
2013-03-15 14:51:00,66.0,23.0,-100.00,South,175,9.0,17.0,18,-99.99,,,-99.99,,2013-03-15 20:51:00,
2013-03-15 15:02:00,67.0,23.0,-100.00,SSW,195,7.0,12.0,18,-99.99,,,-99.99,,2013-03-15 21:02:00,
2013-03-15 15:12:00,68.0,24.0,-100.00,South,185,7.0,17.0,18,-99.99,,,-99.99,,2013-03-15 21:12:00,
2013-03-15 15:22:00,69.0,24.0,-100.00,South,175,6.0,14.0,18,-99.99,,,-99.99,,2013-03-15 21:22:00,
2013-03-15 15:32:00,68.0,23.0,-100.00,SSW,195,6.0,14.0,18,-99.99,,,-99.99,,2013-03-15 21:32:00,
2013-03-15 15:42:00,69.0,24.0,-100.00,South,190,9.0,18.0,18,-99.99,,,-99.99,,2013-03-15 21:42:00,
2013-03-15 15:52:00,69.0,24.0,-100.00,SW,235,6.0,17.0,18,-99.99,,,-99.99,,2013-03-15 21:52:00,
2013-03-15 16:03:00,69.0,24.0,-100.00,SSW,210,6.0,17.0,18,-99.99,,,-99.99,,2013-03-15 22:03:00,
2013-03-15 16:12:00,68.0,23.0,-100.00,SW,230,10.0,21.0,18,-99.99,,,-99.99,,2013-03-15 22:12:00,
2013-03-15 16:22:00,68.0,23.0,-100.00,South,170,9.0,21.0,17,-99.99,,,-99.99,,2013-03-15 22:22:00,
2013-03-15 16:32:00,68.0,23.0,-100.00,SW,225,4.0,14.0,18,-99.99,,,-99.99,,2013-03-15 22:32:00,
2013-03-15 16:42:00,68.0,23.0,-100.00,SW,215,5.0,17.0,18,-99.99,,,-99.99,,2013-03-15 22:42:00,
2013-03-15 16:52:00,68.0,23.0,-100.00,SSW,195,7.0,19.0,18,-99.99,,,-99.99,,2013-03-15 22:52:00,
2013-03-15 17:02:00,67.0,22.0,-100.00,South,185,7.0,16.0,18,-99.99,,,-99.99,,2013-03-15 23:02:00,
2013-03-15 17:12:00,66.0,22.0,-100.00,SSE,155,4.0,14.0,18,-99.99,,,-99.99,,2013-03-15 23:12:00,
2013-03-15 17:22:00,66.0,21.0,-100.00,WSW,240,4.0,10.0,18,-99.99,,,-99.99,,2013-03-15 23:22:00,
2013-03-15 17:32:00,65.0,22.0,-100.00,WSW,240,7.0,11.0,18,-99.99,,,-99.99,,2013-03-15 23:32:00,
2013-03-15 17:42:00,65.0,22.0,-100.00,ENE,70,1.0,7.0,19,-99.99,,,-99.99,,2013-03-15 23:42:00,
2013-03-15 17:52:00,64.0,22.0,-100.00,West,260,1.0,6.0,19,-99.99,,,-99.99,,2013-03-15 23:52:00,
2013-03-15 18:02:00,63.0,22.0,-100.00,South,170,4.0,7.0,20,-99.99,,,-99.99,,2013-03-16 00:02:00,
2013-03-15 18:12:00,63.0,22.0,-100.00,South,170,2.0,6.0,20,-99.99,,,-99.99,,2013-03-16 00:12:00,
2013-03-15 18:22:00,62.0,22.0,-100.00,SSW,205,2.0,6.0,21,-99.99,,,-99.99,,2013-03-16 00:22:00,
2013-03-15 18:32:00,62.0,23.0,-100.00,SSW,195,1.0,6.0,22,-99.99,,,-99.99,,2013-03-16 00:32:00,
2013-03-15 18:42:00,61.0,23.0,-100.00,SW,235,0.0,4.0,22,-99.99,,,-99.99,,2013-03-16 00:42:00,
2013-03-15 18:52:00,59.0,24.0,-100.00,West,260,0.0,2.0,24,-99.99,,,-99.99,,2013-03-16 00:52:00,
2013-03-15 19:02:00,58.0,25.0,-100.00,SSW,195,0.0,2.0,27,-99.99,,,-99.99,,2013-03-16 01:02:00,
2013-03-15 19:12:00,56.0,24.0,-100.00,West,275,1.0,2.0,28,-99.99,,,-99.99,,2013-03-16 01:12:00,
2013-03-15 19:21:00,55.0,24.0,-100.00,SW,235,1.0,4.0,30,-99.99,,,-99.99,,2013-03-16 01:21:00,
2013-03-15 19:32:00,53.0,24.0,-100.00,SSW,195,0.0,2.0,32,-99.99,,,-99.99,,2013-03-16 01:32:00,
2013-03-15 19:42:00,52.0,24.0,-100.00,SW,230,2.0,2.0,33,-99.99,,,-99.99,,2013-03-16 01:42:00,
2013-03-15 19:52:00,51.0,24.0,-100.00,SW,225,0.0,2.0,34,-99.99,,,-99.99,,2013-03-16 01:52:00,
2013-03-15 20:02:00,49.0,24.0,-100.00,SW,220,0.0,1.0,37,-99.99,,,-99.99,,2013-03-16 02:02:00,
2013-03-15 20:12:00,48.0,24.0,-100.00,SSW,210,0.0,1.0,38,-99.99,,,-99.99,,2013-03-16 02:12:00,
2013-03-15 20:22:00,47.0,24.0,-100.00,SSW,210,0.0,1.0,40,-99.99,,,-99.99,,2013-03-16 02:22:00,
2013-03-15 20:32:00,46.0,24.0,-100.00,SSW,205,0.0,1.0,42,-99.99,,,-99.99,,2013-03-16 02:32:00,
2013-03-15 20:42:00,45.0,25.0,-100.00,East,95,0.0,1.0,43,-99.99,,,-99.99,,2013-03-16 02:42:00,
2013-03-15 20:52:00,45.0,25.0,-100.00,ESE,120,0.0,0.0,45,-99.99,,,-99.99,,2013-03-16 02:52:00,
2013-03-15 21:02:00,44.0,25.0,-100.00,East,90,0.0,1.0,47,-99.99,,,-99.99,,2013-03-16 03:02:00,
2013-03-15 21:12:00,43.0,26.0,-100.00,ENE,75,0.0,1.0,49,-99.99,,,-99.99,,2013-03-16 03:12:00,
2013-03-15 21:21:00,43.0,26.0,-100.00,ENE,75,0.0,1.0,50,-99.99,,,-99.99,,2013-03-16 03:21:00,
2013-03-15 21:32:00,42.0,26.0,-100.00,ENE,75,0.0,1.0,52,-99.99,,,-99.99,,2013-03-16 03:32:00,
2013-03-15 21:42:00,42.0,26.0,-100.00,ENE,65,0.0,2.0,53,-99.99,,,-99.99,,2013-03-16 03:42:00,
2013-03-15 21:52:00,41.0,26.0,-100.00,ENE,65,0.0,1.0,54,-99.99,,,-99.99,,2013-03-16 03:52:00,
2013-03-15 22:02:00,41.0,26.0,-100.00,ENE,70,0.0,0.0,55,-99.99,,,-99.99,,2013-03-16 04:02:00,
2013-03-15 22:12:00,40.0,26.0,-100.00,ENE,65,0.0,1.0,57,-99.99,,,-99.99,,2013-03-16 04:12:00,
2013-03-15 22:22:00,40.0,26.0,-100.00,East,100,0.0,1.0,58,-99.99,,,-99.99,,2013-03-16 04:22:00,
2013-03-15 22:32:00,40.0,27.0,-100.00,East,100,0.0,1.0,59,-99.99,,,-99.99,,2013-03-16 04:32:00,
2013-03-15 22:42:00,39.0,27.0,-100.00,East,100,0.0,1.0,60,-99.99,,,-99.99,,2013-03-16 04:42:00,
2013-03-15 22:52:00,39.0,26.0,-100.00,ENE,70,0.0,1.0,60,-99.99,,,-99.99,,2013-03-16 04:52:00,
2013-03-15 23:02:00,38.0,27.0,-100.00,ENE,75,0.0,0.0,62,-99.99,,,-99.99,,2013-03-16 05:02:00,
2013-03-15 23:12:00,38.0,27.0,-100.00,ENE,75,0.0,0.0,63,-99.99,,,-99.99,,2013-03-16 05:12:00,
2013-03-15 23:21:00,38.0,27.0,-100.00,ENE,70,0.0,1.0,64,-99.99,,,-99.99,,2013-03-16 05:21:00,
2013-03-15 23:32:00,37.0,27.0,-100.00,ENE,70,0.0,1.0,65,-99.99,,,-99.99,,2013-03-16 05:32:00,
2013-03-15 23:42:00,37.0,27.0,-100.00,ENE,75,0.0,1.0,65,-99.99,,,-99.99,,2013-03-16 05:42:00,
2013-03-15 23:52:00,37.0,27.0,-100.00,ENE,75,0.0,0.0,67,-99.99,,,-99.99,,2013-03-16 05:52:00,